createdAt,value
2023-01-26T00:00:56.136Z,28.59
2023-01-26T00:03:22.840Z,27.47
2023-01-26T00:05:49.490Z,28.11
2023-01-26T00:08:16.115Z,28.41
2023-01-26T00:10:42.772Z,27.80
2023-01-26T00:13:10.119Z,27.11
2023-01-26T00:15:36.769Z,27.99
2023-01-26T00:18:03.521Z,27.51
2023-01-26T00:20:30.303Z,27.01
2023-01-26T00:22:56.938Z,28.40
2023-01-26T00:25:23.560Z,27.57
2023-01-26T00:27:50.183Z,27.82
2023-01-26T00:30:16.846Z,27.37
2023-01-26T00:32:43.492Z,27.84
2023-01-26T00:35:10.128Z,28.63
2023-01-26T00:37:36.841Z,29.10
2023-01-26T00:40:03.571Z,28.08
2023-01-26T00:42:30.230Z,26.12
2023-01-26T00:44:56.897Z,25.87
2023-01-26T00:47:23.539Z,25.08
2023-01-26T00:49:50.184Z,25.87
2023-01-26T00:52:16.825Z,26.58
2023-01-26T00:54:43.510Z,30.32
2023-01-26T00:57:10.186Z,29.52
2023-01-26T00:59:36.858Z,29.47
2023-01-26T01:02:03.575Z,30.33
2023-01-26T01:04:30.412Z,28.16
2023-01-26T01:06:57.760Z,28.39
2023-01-26T01:09:24.439Z,29.98
2023-01-26T01:11:51.080Z,30.68
2023-01-26T01:14:17.749Z,30.80
2023-01-26T01:16:44.403Z,30.52
2023-01-26T01:19:14.129Z,31.78
2023-01-26T01:21:40.839Z,33.02
2023-01-26T01:24:07.711Z,32.73
2023-01-26T01:26:34.363Z,31.13
2023-01-26T01:29:01.001Z,27.40
2023-01-26T01:31:27.734Z,26.05
2023-01-26T01:33:54.729Z,25.71
2023-01-26T01:36:21.418Z,25.23
2023-01-26T01:38:48.100Z,25.31
2023-01-26T01:41:16.970Z,25.36
2023-01-26T01:43:43.727Z,25.64
2023-01-26T01:46:21.274Z,25.33
2023-01-26T01:48:58.893Z,26.69
2023-01-26T01:51:43.711Z,26.23
2023-01-26T01:54:12.206Z,25.60
2023-01-26T01:56:40.059Z,27.37
2023-01-26T01:59:06.712Z,27.81
2023-01-26T02:01:33.369Z,26.87
2023-01-26T02:04:00.786Z,27.94
2023-01-26T02:06:36.256Z,28.52
2023-01-26T02:09:03.451Z,28.19
2023-01-26T02:11:48.140Z,28.31
2023-01-26T02:14:14.789Z,28.65
2023-01-26T02:16:44.750Z,29.44
2023-01-26T02:19:37.833Z,28.43
2023-01-26T02:22:16.626Z,28.49
2023-01-26T02:24:44.013Z,27.25
2023-01-26T02:27:10.832Z,27.64
2023-01-26T02:29:37.487Z,27.04
2023-01-26T02:32:04.158Z,26.05
2023-01-26T02:34:30.829Z,26.02
2023-01-26T02:37:00.823Z,26.97
2023-01-26T02:39:44.168Z,25.99
2023-01-26T02:42:10.922Z,23.66
2023-01-26T02:44:37.859Z,23.02
2023-01-26T02:47:11.920Z,22.02
2023-01-26T02:49:38.604Z,20.62
2023-01-26T02:52:05.555Z,19.96
2023-01-26T02:54:32.282Z,19.73
2023-01-26T02:56:58.964Z,20.22
2023-01-26T02:59:25.698Z,18.39
2023-01-26T03:01:52.482Z,18.40
2023-01-26T03:04:19.135Z,18.23
2023-01-26T03:06:45.841Z,18.80
2023-01-26T03:09:12.529Z,19.09
2023-01-26T03:11:39.220Z,19.90
2023-01-26T03:14:05.898Z,22.50
2023-01-26T03:16:32.573Z,20.97
2023-01-26T03:18:59.280Z,20.40
2023-01-26T03:21:25.957Z,20.44
2023-01-26T03:23:52.659Z,20.06
2023-01-26T03:26:19.315Z,20.66
2023-01-26T03:28:46.026Z,19.05
2023-01-26T03:31:12.759Z,20.10
2023-01-26T03:33:39.421Z,21.10
2023-01-26T03:36:06.255Z,20.56
2023-01-26T03:38:32.889Z,21.45
2023-01-26T03:40:59.528Z,21.81
2023-01-26T03:43:26.195Z,21.19
2023-01-26T03:45:53.386Z,22.21
2023-01-26T03:48:20.022Z,23.79
2023-01-26T03:50:46.788Z,23.52
2023-01-26T03:53:14.887Z,24.34
2023-01-26T03:55:41.556Z,25.13
2023-01-26T03:58:08.234Z,26.17
2023-01-26T04:00:34.888Z,27.16
2023-01-26T04:03:01.538Z,26.32
2023-01-26T04:05:28.177Z,25.44
2023-01-26T04:07:54.839Z,27.25
2023-01-26T04:10:21.536Z,27.46
2023-01-26T04:12:48.805Z,26.25
2023-01-26T04:15:15.486Z,26.75
2023-01-26T04:17:42.149Z,25.50
2023-01-26T04:20:09.611Z,26.14
2023-01-26T04:22:37.279Z,25.70
2023-01-26T04:25:03.951Z,26.09
2023-01-26T04:27:30.604Z,25.08
2023-01-26T04:29:57.340Z,24.37
2023-01-26T04:32:23.996Z,23.83
2023-01-26T04:34:50.691Z,23.27
2023-01-26T04:37:17.431Z,22.36
2023-01-26T04:39:44.078Z,20.81
2023-01-26T04:42:10.731Z,21.30
2023-01-26T04:44:37.449Z,21.30
2023-01-26T04:47:04.110Z,21.65
2023-01-26T04:49:30.761Z,20.94
2023-01-26T04:51:57.410Z,20.46
2023-01-26T04:54:24.062Z,21.06
2023-01-26T04:56:50.710Z,20.19
2023-01-26T04:59:17.336Z,19.84
2023-01-26T05:01:44.353Z,19.16
2023-01-26T05:04:11.413Z,19.18
2023-01-26T05:06:38.125Z,18.95
2023-01-26T05:09:05.017Z,19.72
2023-01-26T05:11:31.724Z,18.61
2023-01-26T05:13:58.469Z,18.51
2023-01-26T05:16:25.234Z,18.31
2023-01-26T05:18:51.921Z,19.18
2023-01-26T05:21:18.556Z,17.73
2023-01-26T05:23:45.211Z,17.73
2023-01-26T05:26:11.872Z,18.03
2023-01-26T05:28:38.537Z,18.21
2023-01-26T05:31:05.286Z,18.09
2023-01-26T05:33:31.939Z,17.96
2023-01-26T05:35:58.604Z,17.36
2023-01-26T05:38:25.257Z,17.59
2023-01-26T05:40:51.881Z,17.89
2023-01-26T05:43:18.596Z,18.44
2023-01-26T05:45:45.304Z,18.66
2023-01-26T05:48:11.965Z,18.06
2023-01-26T05:50:38.652Z,18.33
2023-01-26T05:53:05.409Z,18.88
2023-01-26T05:55:32.440Z,18.22
2023-01-26T05:57:59.105Z,18.53
2023-01-26T06:00:25.855Z,19.22
2023-01-26T06:02:52.507Z,19.65
2023-01-26T06:05:19.163Z,18.87
2023-01-26T06:07:45.964Z,18.95
2023-01-26T06:10:12.846Z,19.15
2023-01-26T06:12:39.689Z,19.62
2023-01-26T06:15:07.249Z,19.03
2023-01-26T06:17:33.908Z,18.75
2023-01-26T06:20:00.574Z,19.23
2023-01-26T06:22:27.215Z,19.80
2023-01-26T06:24:53.927Z,18.92
2023-01-26T06:27:20.558Z,18.05
2023-01-26T06:29:47.238Z,18.39
2023-01-26T06:32:14.060Z,18.60
2023-01-26T06:34:40.790Z,18.93
2023-01-26T06:37:07.475Z,19.75
2023-01-26T06:39:34.157Z,20.52
2023-01-26T06:42:00.857Z,19.71
2023-01-26T06:44:28.203Z,19.27
2023-01-26T06:46:54.870Z,19.36
2023-01-26T06:49:21.525Z,18.78
2023-01-26T06:51:48.060Z,18.56
2023-01-26T06:54:14.752Z,18.94
2023-01-26T06:56:41.571Z,19.49
2023-01-26T06:59:08.250Z,18.06
2023-01-26T07:01:37.225Z,18.40
2023-01-26T07:04:03.955Z,17.71
2023-01-26T07:06:30.692Z,19.04
2023-01-26T07:08:57.326Z,17.80
2023-01-26T07:11:23.959Z,18.15
2023-01-26T07:13:50.592Z,18.23
2023-01-26T07:16:17.467Z,17.59
2023-01-26T07:18:44.262Z,18.78
2023-01-26T07:21:12.163Z,18.94
2023-01-26T07:23:38.813Z,17.93
2023-01-26T07:26:05.619Z,17.65
2023-01-26T07:28:32.384Z,18.70
2023-01-26T07:30:59.235Z,18.79
2023-01-26T07:33:25.956Z,19.00
2023-01-26T07:35:58.695Z,18.17
2023-01-26T07:38:25.440Z,18.25
2023-01-26T07:40:52.090Z,18.64
2023-01-26T07:43:18.816Z,18.46
2023-01-26T07:45:46.198Z,17.84
2023-01-26T07:48:12.880Z,17.60
2023-01-26T07:50:39.587Z,18.02
2023-01-26T07:53:11.712Z,18.87
2023-01-26T07:55:38.698Z,17.70
2023-01-26T07:58:05.358Z,18.16
2023-01-26T08:00:32.129Z,19.53
2023-01-26T08:02:58.851Z,20.07
2023-01-26T08:05:25.493Z,19.95
2023-01-26T08:07:52.312Z,19.13
2023-01-26T08:10:18.970Z,18.27
2023-01-26T08:12:45.593Z,17.32
2023-01-26T08:15:12.277Z,17.76
2023-01-26T08:17:39.449Z,17.51
2023-01-26T08:20:06.608Z,18.11
2023-01-26T08:22:33.296Z,18.06
2023-01-26T08:24:59.941Z,20.05
2023-01-26T08:27:26.568Z,19.34
2023-01-26T08:29:53.299Z,21.92
2023-01-26T08:32:19.979Z,23.48
2023-01-26T08:34:46.738Z,21.20
2023-01-26T08:37:13.382Z,21.13
2023-01-26T08:39:40.022Z,21.72
2023-01-26T08:42:06.666Z,27.08
2023-01-26T08:44:33.328Z,29.01
2023-01-26T08:46:59.983Z,30.50
2023-01-26T08:49:26.636Z,31.90
2023-01-26T08:51:53.326Z,32.38
2023-01-26T08:54:20.023Z,31.76
2023-01-26T08:56:46.660Z,31.15
2023-01-26T08:59:13.317Z,30.41
2023-01-26T09:01:40.014Z,30.50
2023-01-26T09:04:06.685Z,27.94
2023-01-26T09:06:33.388Z,26.91
2023-01-26T09:09:00.095Z,27.05
2023-01-26T09:11:26.767Z,27.91
2023-01-26T09:13:53.590Z,28.85
2023-01-26T09:16:20.295Z,27.09
2023-01-26T09:18:52.431Z,28.53
2023-01-26T09:21:19.191Z,25.79
2023-01-26T09:23:45.865Z,24.82
2023-01-26T09:26:12.519Z,24.44
2023-01-26T09:28:39.167Z,22.71
2023-01-26T09:31:06.773Z,20.70
2023-01-26T09:33:33.575Z,20.26
2023-01-26T09:36:04.748Z,19.12
2023-01-26T09:38:31.389Z,21.08
2023-01-26T09:41:10.058Z,21.72
2023-01-26T09:43:39.238Z,22.81
2023-01-26T09:46:20.867Z,22.45
2023-01-26T09:48:50.044Z,24.46
2023-01-26T09:51:48.125Z,24.20
2023-01-26T09:54:35.710Z,24.38
2023-01-26T09:57:02.836Z,22.09
2023-01-26T09:59:45.105Z,21.74
2023-01-26T10:02:24.758Z,20.79
2023-01-26T10:04:54.376Z,19.94
2023-01-26T10:07:22.001Z,19.65
2023-01-26T10:09:49.965Z,19.83
2023-01-26T10:12:19.076Z,19.33
2023-01-26T10:14:52.892Z,20.95
2023-01-26T10:17:29.379Z,19.29
2023-01-26T10:20:09.212Z,18.90
2023-01-26T10:22:46.721Z,18.72
2023-01-26T10:25:17.364Z,19.72
2023-01-26T10:27:44.682Z,19.28
2023-01-26T10:30:18.242Z,18.42
2023-01-26T10:32:45.890Z,19.29
2023-01-26T10:35:23.327Z,19.01
2023-01-26T10:37:50.735Z,18.66
2023-01-26T10:40:17.559Z,19.21
2023-01-26T10:42:53.961Z,19.52
2023-01-26T10:45:33.809Z,20.24
2023-01-26T10:48:15.282Z,20.78
2023-01-26T10:50:42.893Z,20.66
2023-01-26T10:53:23.580Z,20.23
2023-01-26T10:56:09.927Z,19.83
2023-01-26T10:58:45.813Z,20.71
2023-01-26T11:01:15.813Z,19.74
2023-01-26T11:03:46.101Z,20.42
2023-01-26T11:06:19.538Z,20.55
2023-01-26T11:08:48.277Z,20.63
2023-01-26T11:11:26.933Z,20.25
2023-01-26T11:14:16.795Z,20.55
2023-01-26T11:16:51.657Z,20.50
2023-01-26T11:19:32.934Z,20.38
2023-01-26T11:22:03.551Z,21.01
2023-01-26T11:24:42.466Z,21.09
2023-01-26T11:27:33.842Z,20.92
2023-01-26T11:30:29.555Z,21.02
2023-01-26T11:33:18.267Z,21.38
2023-01-26T11:35:54.867Z,20.78
2023-01-26T11:38:43.944Z,20.58
2023-01-26T11:44:54.059Z,20.21
2023-01-26T11:47:37.708Z,20.95
2023-01-26T11:50:24.382Z,24.66
2023-01-26T11:53:11.105Z,26.76
2023-01-26T11:56:10.820Z,21.12
2023-01-26T11:58:43.474Z,21.40
2023-01-26T12:01:24.128Z,21.18
2023-01-26T12:03:51.697Z,19.77
2023-01-26T12:06:25.368Z,20.49
2023-01-26T12:09:02.018Z,19.66
2023-01-26T12:11:34.651Z,19.87
2023-01-26T12:14:03.236Z,20.00
2023-01-26T12:16:43.968Z,19.68
2023-01-26T12:19:22.578Z,19.47
2023-01-26T12:21:51.199Z,19.19
2023-01-26T12:24:48.257Z,18.65
2023-01-26T12:27:15.469Z,18.43
2023-01-26T12:29:55.119Z,19.23
2023-01-26T12:32:22.757Z,18.62
2023-01-26T12:34:51.312Z,18.79
2023-01-26T12:37:46.040Z,18.49
2023-01-26T12:40:19.664Z,18.51
2023-01-26T12:42:50.317Z,18.66
2023-01-26T12:45:30.930Z,18.55
2023-01-26T12:48:19.617Z,19.15
2023-01-26T12:50:50.262Z,19.21
2023-01-26T12:53:37.761Z,19.66
2023-01-26T12:56:32.599Z,19.69
2023-01-26T12:59:38.607Z,18.27
2023-01-26T13:02:17.076Z,18.11
2023-01-26T13:04:44.783Z,18.92
2023-01-26T13:07:37.057Z,18.93
2023-01-26T13:10:16.482Z,18.90
2023-01-26T13:12:48.991Z,18.55
2023-01-26T13:15:16.953Z,19.18
2023-01-26T13:17:51.469Z,19.75
2023-01-26T13:20:24.056Z,19.18
2023-01-26T13:22:51.963Z,18.74
2023-01-26T13:25:31.971Z,18.84
2023-01-26T13:28:00.155Z,19.50
2023-01-26T13:30:28.486Z,18.73
2023-01-26T13:33:09.307Z,19.33
2023-01-26T13:35:36.112Z,18.82
2023-01-26T13:38:15.152Z,20.02
2023-01-26T13:40:44.040Z,20.85
2023-01-26T13:43:27.161Z,19.35
2023-01-26T13:46:03.641Z,18.90
2023-01-26T13:48:36.962Z,19.17
2023-01-26T13:51:03.831Z,19.36
2023-01-26T13:53:49.196Z,19.11
2023-01-26T13:56:32.865Z,19.48
2023-01-26T13:59:08.865Z,19.30
2023-01-26T14:01:41.159Z,18.95
2023-01-26T14:04:15.688Z,18.62
2023-01-26T14:06:43.857Z,20.10
2023-01-26T14:09:11.628Z,18.94
2023-01-26T14:11:38.281Z,19.95
2023-01-26T14:14:04.935Z,18.96
2023-01-26T14:16:36.135Z,19.14
2023-01-26T14:19:06.506Z,18.46
2023-01-26T14:21:33.306Z,18.65
2023-01-26T14:24:00.020Z,19.29
2023-01-26T14:26:33.319Z,19.28
2023-01-26T14:29:00.073Z,19.65
2023-01-26T14:31:27.593Z,19.17
2023-01-26T14:33:55.994Z,18.80
2023-01-26T14:36:22.656Z,19.26
2023-01-26T14:38:51.107Z,19.17
2023-01-26T14:41:18.876Z,19.37
2023-01-26T14:43:45.559Z,18.46
2023-01-26T14:46:36.841Z,19.10
2023-01-26T14:49:17.856Z,19.74
2023-01-26T14:51:44.693Z,19.76
2023-01-26T14:54:18.206Z,19.72
2023-01-26T14:56:46.221Z,19.85
2023-01-26T14:59:28.129Z,19.84
2023-01-26T15:02:37.323Z,19.84
2023-01-26T15:05:15.970Z,19.48
2023-01-26T15:07:43.911Z,19.24
2023-01-26T15:10:39.023Z,18.89
2023-01-26T15:13:14.707Z,19.95
2023-01-26T15:15:46.248Z,19.26
2023-01-26T15:18:12.783Z,18.59
2023-01-26T15:21:05.390Z,18.98
2023-01-26T15:23:35.923Z,19.69
2023-01-26T15:26:10.448Z,19.19
2023-01-26T15:28:37.134Z,19.23
2023-01-26T15:31:04.122Z,17.99
2023-01-26T15:33:47.450Z,18.74
2023-01-26T15:36:46.501Z,19.10
2023-01-26T15:39:14.479Z,18.67
2023-01-26T15:41:42.221Z,19.05
2023-01-26T15:44:15.525Z,18.64
2023-01-26T15:46:42.247Z,19.58
2023-01-26T15:49:08.919Z,19.04
2023-01-26T15:51:36.562Z,19.41
2023-01-26T15:54:03.460Z,19.06
2023-01-26T15:56:30.133Z,18.88
2023-01-26T15:58:57.114Z,19.31
2023-01-26T16:01:23.783Z,18.72
2023-01-26T16:03:50.600Z,18.64
2023-01-26T16:06:24.904Z,19.55
2023-01-26T16:08:52.149Z,18.73
2023-01-26T16:11:18.947Z,19.66
2023-01-26T16:13:54.020Z,19.16
2023-01-26T16:16:28.923Z,19.00
2023-01-26T16:18:56.182Z,19.93
2023-01-26T16:21:27.353Z,20.02
2023-01-26T16:23:54.436Z,24.08
2023-01-26T16:26:21.106Z,20.73
2023-01-26T16:28:47.810Z,19.24
2023-01-26T16:31:15.970Z,18.60
2023-01-26T16:33:42.703Z,20.12
2023-01-26T16:36:10.615Z,21.65
2023-01-26T16:38:37.263Z,22.02
2023-01-26T16:41:03.912Z,20.61
2023-01-26T16:43:30.567Z,18.97
2023-01-26T16:45:57.233Z,20.62
2023-01-26T16:48:23.919Z,20.47
2023-01-26T16:50:51.560Z,20.61
2023-01-26T16:53:22.509Z,21.75
2023-01-26T16:55:49.183Z,20.23
2023-01-26T16:58:15.952Z,20.28
2023-01-26T17:00:42.636Z,19.12
2023-01-26T17:03:10.967Z,19.97
2023-01-26T17:05:37.631Z,21.22
2023-01-26T17:08:04.499Z,20.97
2023-01-26T17:10:31.202Z,21.13
2023-01-26T17:12:57.835Z,22.25
2023-01-26T17:15:24.470Z,21.66
2023-01-26T17:17:51.469Z,20.95
2023-01-26T17:20:20.130Z,21.68
2023-01-26T17:22:47.387Z,22.33
2023-01-26T17:25:16.699Z,21.33
2023-01-26T17:27:44.415Z,21.68
2023-01-26T17:30:11.276Z,21.55
2023-01-26T17:32:37.941Z,22.25
2023-01-26T17:35:04.712Z,23.77
2023-01-26T17:37:31.515Z,22.25
2023-01-26T17:39:58.436Z,22.00
2023-01-26T17:42:25.069Z,20.66
2023-01-26T17:44:51.735Z,19.50
2023-01-26T17:47:18.360Z,19.52
2023-01-26T17:49:45.020Z,20.12
2023-01-26T17:52:11.668Z,20.65
2023-01-26T17:54:38.327Z,20.74
2023-01-26T17:57:05.021Z,21.74
2023-01-26T17:59:31.705Z,21.66
2023-01-26T18:01:58.388Z,23.00
2023-01-26T18:04:25.057Z,22.22
2023-01-26T18:06:51.762Z,22.35
2023-01-26T18:09:18.462Z,22.75
2023-01-26T18:11:45.100Z,22.87
2023-01-26T18:14:11.746Z,22.84
2023-01-26T18:16:39.093Z,22.86
2023-01-26T18:19:05.872Z,24.34
2023-01-26T18:21:32.548Z,23.64
2023-01-26T18:24:03.169Z,23.84
2023-01-26T18:26:31.828Z,23.88
2023-01-26T18:28:59.715Z,24.42
2023-01-26T18:31:27.913Z,23.92
2023-01-26T18:33:55.662Z,24.58
2023-01-26T18:36:22.354Z,23.87
2023-01-26T18:38:55.832Z,21.75
2023-01-26T18:41:23.090Z,22.77
2023-01-26T18:43:50.870Z,23.08
2023-01-26T18:46:17.510Z,22.72
2023-01-26T18:48:44.174Z,23.25
2023-01-26T18:51:10.834Z,23.65
2023-01-26T18:53:37.505Z,23.62
2023-01-26T18:56:10.321Z,23.52
2023-01-26T18:58:37.480Z,23.71
2023-01-26T19:01:04.878Z,22.85
2023-01-26T19:03:34.559Z,25.17
2023-01-26T19:06:02.090Z,25.82
2023-01-26T19:08:28.966Z,27.61
2023-01-26T19:11:06.242Z,25.31
2023-01-26T19:13:33.064Z,23.41
2023-01-26T19:16:00.024Z,23.51
2023-01-26T19:18:26.661Z,23.75
2023-01-26T19:20:57.353Z,22.09
2023-01-26T19:23:24.069Z,23.44
2023-01-26T19:25:50.756Z,21.78
2023-01-26T19:28:17.397Z,21.55
2023-01-26T19:30:44.128Z,21.92
2023-01-26T19:33:11.093Z,22.21
2023-01-26T19:35:38.013Z,22.25
2023-01-26T19:38:04.817Z,23.35
2023-01-26T19:40:34.511Z,23.03
2023-01-26T19:43:01.370Z,23.08
2023-01-26T19:45:28.068Z,21.43
2023-01-26T19:47:54.714Z,21.31
2023-01-26T19:50:21.401Z,20.72
2023-01-26T19:52:48.047Z,21.72
2023-01-26T19:55:14.957Z,22.73
2023-01-26T19:57:41.693Z,22.06
2023-01-26T20:00:08.842Z,22.29
2023-01-26T20:02:35.926Z,24.07
2023-01-26T20:05:02.576Z,26.71
2023-01-26T20:07:29.229Z,25.08
2023-01-26T20:09:56.021Z,24.07
2023-01-26T20:12:22.777Z,24.15
2023-01-26T20:14:49.444Z,25.00
2023-01-26T20:17:16.168Z,24.91
2023-01-26T20:19:42.827Z,22.77
2023-01-26T20:22:09.522Z,22.90
2023-01-26T20:24:36.191Z,23.30
2023-01-26T20:27:02.927Z,22.32
2023-01-26T20:29:29.579Z,22.51
2023-01-26T20:31:56.308Z,20.67
2023-01-26T20:34:23.024Z,20.65
2023-01-26T20:36:49.729Z,20.06
2023-01-26T20:39:16.870Z,20.82
2023-01-26T20:41:43.682Z,20.96
2023-01-26T20:44:10.307Z,22.69
2023-01-26T20:46:40.344Z,21.63
2023-01-26T20:49:07.892Z,21.10
2023-01-26T20:51:34.891Z,21.29
2023-01-26T20:54:02.253Z,22.39
2023-01-26T20:56:28.942Z,21.52
2023-01-26T20:58:55.669Z,22.05
2023-01-26T21:01:22.724Z,21.28
2023-01-26T21:03:49.430Z,21.88
2023-01-26T21:06:16.622Z,21.40
2023-01-26T21:08:43.297Z,20.62
2023-01-26T21:11:14.615Z,20.65
2023-01-26T21:13:41.284Z,20.22
2023-01-26T21:16:09.115Z,19.53
2023-01-26T21:18:35.775Z,20.34
2023-01-26T21:21:04.144Z,20.43
2023-01-26T21:23:31.201Z,21.58
2023-01-26T21:26:01.968Z,20.74
2023-01-26T21:28:28.748Z,20.20
2023-01-26T21:31:02.079Z,20.84
2023-01-26T21:33:31.851Z,21.49
2023-01-26T21:35:58.924Z,21.75
2023-01-26T21:38:25.582Z,21.60
2023-01-26T21:41:02.758Z,21.84
2023-01-26T21:43:29.812Z,21.31
2023-01-26T21:45:57.159Z,21.33
2023-01-26T21:48:23.848Z,19.68
2023-01-26T21:50:50.476Z,20.98
2023-01-26T21:53:17.563Z,20.51
2023-01-26T21:55:45.897Z,19.50
2023-01-26T21:58:12.561Z,20.89
2023-01-26T22:00:39.296Z,21.21
2023-01-26T22:03:06.042Z,22.14
2023-01-26T22:05:32.756Z,22.67
2023-01-26T22:07:59.429Z,22.63
2023-01-26T22:10:26.112Z,19.29
2023-01-26T22:12:52.777Z,19.72
2023-01-26T22:15:19.471Z,20.94
2023-01-26T22:17:46.121Z,19.74
2023-01-26T22:20:13.156Z,18.74
2023-01-26T22:22:40.011Z,18.61
2023-01-26T22:25:06.813Z,18.87
2023-01-26T22:27:33.451Z,19.36
2023-01-26T22:30:00.296Z,19.38
2023-01-26T22:32:26.944Z,19.82
2023-01-26T22:34:53.619Z,18.96
2023-01-26T22:37:20.425Z,18.77
2023-01-26T22:39:47.095Z,18.62
2023-01-26T22:42:13.756Z,17.92
2023-01-26T22:44:40.441Z,17.59
2023-01-26T22:47:07.120Z,18.24
2023-01-26T22:49:33.791Z,18.29
2023-01-26T22:52:00.469Z,18.55
2023-01-26T22:54:27.197Z,17.95
2023-01-26T22:56:53.849Z,18.79
2023-01-26T22:59:20.541Z,17.98
2023-01-26T23:01:47.244Z,17.90
2023-01-26T23:04:13.964Z,18.19
2023-01-26T23:06:40.661Z,19.12
2023-01-26T23:09:07.349Z,19.10
2023-01-26T23:11:34.046Z,19.69
2023-01-26T23:14:00.696Z,18.51
2023-01-26T23:16:27.466Z,18.37
2023-01-26T23:18:55.391Z,17.73
2023-01-26T23:21:22.088Z,17.70
2023-01-26T23:23:48.824Z,17.84
2023-01-26T23:26:15.541Z,17.77
2023-01-26T23:28:42.903Z,17.47
2023-01-26T23:31:10.688Z,17.29
2023-01-26T23:33:37.621Z,16.41
2023-01-26T23:36:04.664Z,16.87
2023-01-26T23:38:31.372Z,16.49
2023-01-26T23:40:58.295Z,16.15
2023-01-26T23:43:24.971Z,16.86
2023-01-26T23:45:51.667Z,17.36
2023-01-26T23:48:18.763Z,16.73
2023-01-26T23:50:45.514Z,16.40
2023-01-26T23:53:12.194Z,16.80
2023-01-26T23:55:42.181Z,16.99
2023-01-26T23:58:09.193Z,16.64
